Time;durP1;ratioP1;P1;durP2;ratioP2;P2;SDS_P1;SDS_P2;PMS_P1;PMS_P2;Temp;Humidity;BMP_temperature;BMP_pressure;BME280_temperature;BME280_humidity;BME280_pressure;Samples;Min_cycle;Max_cycle;Signal;HPM_P1;HPM_P2
2023/12/07 00:01:47;;;;;;;84.43;26.73;;;2.20;99.90;;;;;;4975034;28;20036;-64
2023/12/07 00:04:13;;;;;;;57.63;20.40;;;2.10;99.90;;;;;;4989967;28;20265;-66
2023/12/07 00:06:39;;;;;;;79.18;27.08;;;2.20;99.90;;;;;;4980881;28;20394;-67
2023/12/07 00:09:04;;;;;;;76.80;27.02;;;2.20;99.90;;;;;;4998569;28;20158;-66
2023/12/07 00:11:30;;;;;;;75.00;24.20;;;2.20;99.90;;;;;;4996062;28;20035;-66
2023/12/07 00:13:56;;;;;;;72.03;26.13;;;2.10;99.90;;;;;;4999397;28;20030;-66
2023/12/07 00:16:21;;;;;;;68.82;25.13;;;2.10;99.90;;;;;;5000435;28;20112;-66
2023/12/07 00:18:47;;;;;;;70.15;23.63;;;2.10;99.90;;;;;;4980509;28;20023;-66
2023/12/07 00:21:12;;;;;;;80.20;25.63;;;2.10;99.90;;;;;;5001666;28;20041;-66
2023/12/07 00:23:40;;;;;;;75.68;26.38;;;2.00;99.90;;;;;;5001723;28;20080;-66
2023/12/07 00:26:06;;;;;;;78.50;26.80;;;1.90;99.90;;;;;;4997327;28;20069;-64
2023/12/07 00:28:32;;;;;;;82.70;26.83;;;1.80;99.90;;;;;;4998393;28;20445;-64
2023/12/07 00:30:57;;;;;;;81.38;27.63;;;1.70;99.90;;;;;;4980028;28;20041;-64
2023/12/07 00:33:23;;;;;;;80.07;26.92;;;1.60;99.90;;;;;;4998617;28;20042;-65
2023/12/07 00:35:49;;;;;;;81.95;27.63;;;1.50;99.90;;;;;;4997870;28;20093;-64
2023/12/07 00:38:15;;;;;;;85.70;26.88;;;1.40;99.90;;;;;;4996981;28;20042;-64
2023/12/07 00:40:40;;;;;;;76.28;25.17;;;1.20;99.90;;;;;;4997506;28;20112;-64
2023/12/07 00:43:07;;;;;;;77.95;24.67;;;1.10;99.90;;;;;;4979334;28;20030;-64
2023/12/07 00:45:33;;;;;;;88.85;25.25;;;1.00;99.90;;;;;;4981798;28;20026;-64
2023/12/07 00:47:58;;;;;;;92.20;26.70;;;1.10;99.90;;;;;;4998322;28;20319;-64
2023/12/07 00:50:24;;;;;;;77.85;25.73;;;1.10;99.90;;;;;;4999182;28;20125;-64
2023/12/07 00:52:49;;;;;;;80.00;25.75;;;1.10;99.90;;;;;;4980645;28;20041;-64
2023/12/07 00:55:15;;;;;;;74.82;25.05;;;1.20;99.90;;;;;;4999116;28;20080;-64
2023/12/07 00:57:41;;;;;;;78.25;26.10;;;1.20;99.90;;;;;;4999532;28;20065;-64
2023/12/07 01:00:07;;;;;;;81.90;26.52;;;1.20;99.90;;;;;;4997727;28;20026;-64
2023/12/07 01:02:36;;;;;;;74.72;23.88;;;1.20;99.90;;;;;;4995154;28;20037;-64
2023/12/07 01:05:02;;;;;;;81.53;26.63;;;1.20;99.90;;;;;;4998175;28;20026;-64
2023/12/07 01:07:27;;;;;;;71.90;24.40;;;1.20;99.90;;;;;;4999134;28;20026;-64
2023/12/07 01:09:53;;;;;;;72.10;23.40;;;1.30;99.90;;;;;;4995324;28;20022;-64
2023/12/07 01:12:19;;;;;;;71.47;24.05;;;1.40;99.90;;;;;;4998501;28;20031;-64
2023/12/07 01:14:44;;;;;;;81.20;24.75;;;1.30;99.90;;;;;;4997126;28;20031;-64
2023/12/07 01:17:10;;;;;;;70.60;23.27;;;1.30;99.90;;;;;;4998465;28;20025;-64
2023/12/07 01:19:35;;;;;;;71.88;22.90;;;1.30;99.90;;;;;;4996870;28;20060;-64
2023/12/07 01:22:01;;;;;;;70.15;22.67;;;1.30;99.90;;;;;;5001822;28;20030;-64
2023/12/07 01:24:27;;;;;;;78.80;24.73;;;1.20;99.90;;;;;;4975518;28;20041;-66
2023/12/07 01:26:52;;;;;;;72.18;23.73;;;1.30;99.90;;;;;;4996318;28;20035;-66
2023/12/07 01:29:20;;;;;;;74.35;22.85;;;1.30;99.90;;;;;;4999047;28;20432;-66
2023/12/07 01:31:46;;;;;;;62.20;20.70;;;1.40;99.90;;;;;;4996153;28;20062;-66
2023/12/07 01:34:11;;;;;;;72.93;23.85;;;1.40;99.90;;;;;;4995619;28;20085;-66
2023/12/07 01:36:37;;;;;;;72.05;22.60;;;1.40;99.90;;;;;;4998440;28;20040;-66
2023/12/07 01:39:03;;;;;;;78.40;24.90;;;1.40;99.90;;;;;;4997252;28;20397;-66
2023/12/07 01:41:28;;;;;;;72.90;24.52;;;1.40;99.90;;;;;;4996788;28;20038;-66
2023/12/07 01:43:54;;;;;;;69.50;24.38;;;1.40;99.90;;;;;;4998250;28;20385;-64
2023/12/07 01:46:20;;;;;;;73.38;24.17;;;1.50;99.90;;;;;;4998813;28;20026;-66
2023/12/07 01:48:49;;;;;;;49.72;16.25;;;1.50;99.90;;;;;;4997132;28;20026;-66
2023/12/07 01:51:16;;;;;;;72.82;25.40;;;1.50;99.90;;;;;;4998032;28;20056;-65
2023/12/07 01:53:43;;;;;;;68.70;21.70;;;1.60;99.90;;;;;;4981517;28;20028;-64
2023/12/07 01:56:10;;;;;;;75.32;23.63;;;1.60;99.90;;;;;;4998110;28;20535;-64
2023/12/07 01:58:36;;;;;;;69.65;23.05;;;1.50;99.90;;;;;;4996011;28;20076;-64
2023/12/07 02:01:03;;;;;;;70.60;23.33;;;1.50;99.90;;;;;;4995024;28;20029;-64
2023/12/07 02:03:32;;;;;;;75.65;24.45;;;1.40;99.90;;;;;;4998838;28;20093;-64
2023/12/07 02:05:59;;;;;;;78.65;25.65;;;1.50;99.90;;;;;;4996221;28;20027;-64
2023/12/07 02:08:26;;;;;;;82.00;23.85;;;1.40;99.90;;;;;;4997725;28;20066;-64
2023/12/07 02:10:55;;;;;;;66.32;21.77;;;1.40;99.90;;;;;;4995887;28;20099;-64
2023/12/07 02:13:21;;;;;;;83.03;24.70;;;1.40;99.90;;;;;;4997823;28;20350;-64
2023/12/07 02:15:47;;;;;;;66.32;21.73;;;1.30;99.90;;;;;;4996756;28;20022;-64
2023/12/07 02:18:21;;;;;;;68.45;22.40;;;1.40;99.90;;;;;;4980780;28;20486;-64
2023/12/07 02:21:12;;;;;;;67.40;22.90;;;1.30;99.90;;;;;;4999091;28;20046;-64
2023/12/07 02:23:41;;;;;;;68.68;22.52;;;1.30;99.90;;;;;;4995525;28;20042;-64
2023/12/07 02:26:08;;;;;;;68.47;22.10;;;1.20;99.90;;;;;;4996104;28;20038;-64
2023/12/07 02:28:34;;;;;;;67.05;22.10;;;1.20;99.90;;;;;;4998604;28;20030;-64
2023/12/07 02:30:59;;;;;;;63.35;21.63;;;1.10;99.90;;;;;;4995289;28;20025;-64
2023/12/07 02:33:25;;;;;;;70.75;23.55;;;1.10;99.90;;;;;;4996510;28;20525;-64
2023/12/07 02:35:51;;;;;;;71.00;22.77;;;1.10;99.90;;;;;;4997928;28;20118;-64
2023/12/07 02:38:17;;;;;;;62.25;22.38;;;1.10;99.90;;;;;;4998240;28;20461;-64
2023/12/07 02:40:45;;;;;;;59.75;20.52;;;1.00;99.90;;;;;;4996325;28;20033;-64
2023/12/07 02:43:12;;;;;;;67.30;20.48;;;0.90;99.90;;;;;;4997054;28;20100;-64
2023/12/07 02:45:38;;;;;;;70.68;21.73;;;0.90;99.90;;;;;;4998591;28;20040;-64
2023/12/07 02:48:04;;;;;;;69.22;21.50;;;0.90;99.90;;;;;;4978814;28;20030;-64
2023/12/07 02:50:30;;;;;;;77.38;21.98;;;0.80;99.90;;;;;;4982678;28;20401;-64
2023/12/07 02:52:56;;;;;;;69.63;21.38;;;0.80;99.90;;;;;;4996076;28;20025;-64
2023/12/07 02:55:22;;;;;;;79.60;22.75;;;0.70;99.90;;;;;;4998891;28;20042;-64
2023/12/07 02:57:51;;;;;;;71.53;22.00;;;0.60;99.90;;;;;;4998366;28;20029;-64
2023/12/07 03:00:17;;;;;;;63.40;20.52;;;0.60;99.90;;;;;;4996932;28;20549;-64
2023/12/07 03:02:43;;;;;;;70.85;22.65;;;0.50;99.90;;;;;;4995092;28;20110;-64
2023/12/07 03:05:08;;;;;;;76.35;22.27;;;0.40;99.90;;;;;;4997743;28;20108;-64
2023/12/07 03:07:34;;;;;;;77.28;23.13;;;0.30;99.90;;;;;;4997118;28;20034;-64
2023/12/07 03:10:00;;;;;;;74.57;23.17;;;0.10;99.90;;;;;;4998779;28;20084;-64
2023/12/07 03:12:26;;;;;;;65.63;22.88;;;-0.10;99.90;;;;;;4995686;28;20038;-64
2023/12/07 03:14:51;;;;;;;70.85;22.35;;;-0.30;99.90;;;;;;4995514;28;20072;-64
2023/12/07 03:17:17;;;;;;;66.32;22.25;;;-0.40;99.90;;;;;;4998267;28;20473;-64
2023/12/07 03:19:43;;;;;;;78.40;23.30;;;-0.60;99.90;;;;;;4995934;28;20513;-64
2023/12/07 03:22:09;;;;;;;69.30;22.33;;;-0.70;99.90;;;;;;4998193;28;20031;-64
2023/12/07 03:24:38;;;;;;;69.40;22.63;;;-0.90;99.90;;;;;;4997892;28;20026;-64
2023/12/07 03:27:06;;;;;;;78.43;24.75;;;-1.00;99.90;;;;;;4996659;28;20477;-64
2023/12/07 03:29:32;;;;;;;76.40;23.85;;;-1.10;99.90;;;;;;4996261;28;20031;-64
2023/12/07 03:31:58;;;;;;;74.50;22.50;;;-1.20;99.90;;;;;;4995734;28;20041;-64
2023/12/07 03:34:24;;;;;;;74.00;21.92;;;-1.30;99.90;;;;;;4998804;28;20029;-64
2023/12/07 03:36:50;;;;;;;84.15;23.55;;;-1.50;99.90;;;;;;4996102;28;20057;-64
2023/12/07 03:39:18;;;;;;;73.40;22.67;;;-1.60;99.90;;;;;;4995568;28;20318;-64
2023/12/07 03:41:44;;;;;;;77.93;22.33;;;-1.70;99.90;;;;;;4999971;28;20026;-64
2023/12/07 03:44:09;;;;;;;75.90;23.70;;;-1.70;99.90;;;;;;4997383;28;20487;-64
2023/12/07 03:46:35;;;;;;;79.00;22.45;;;-1.80;99.90;;;;;;4978215;28;20084;-64
2023/12/07 03:49:00;;;;;;;84.78;23.92;;;-1.80;99.90;;;;;;4995347;28;20060;-64
2023/12/07 03:51:27;;;;;;;75.38;22.52;;;-1.70;99.90;;;;;;4999141;28;20026;-64
2023/12/07 03:53:54;;;;;;;76.53;21.70;;;-1.70;99.90;;;;;;4998236;28;20045;-64
2023/12/07 03:56:24;;;;;;;65.85;20.83;;;-1.80;99.90;;;;;;5000135;28;20067;-64
2023/12/07 03:58:49;;;;;;;80.97;22.00;;;-1.90;99.90;;;;;;4996348;28;20026;-64
2023/12/07 04:01:15;;;;;;;72.70;20.70;;;-1.90;99.90;;;;;;4994043;28;20031;-64
2023/12/07 04:03:40;;;;;;;77.80;22.55;;;-1.90;99.90;;;;;;4997550;28;20026;-64
2023/12/07 04:06:06;;;;;;;71.05;22.92;;;-2.00;99.90;;;;;;4999107;28;20113;-64
2023/12/07 04:08:33;;;;;;;83.07;24.55;;;-2.00;99.90;;;;;;4997186;28;20031;-64
2023/12/07 04:10:58;;;;;;;84.88;23.17;;;-2.00;99.90;;;;;;4993239;28;20023;-64
2023/12/07 04:13:24;;;;;;;78.90;23.75;;;-2.00;99.90;;;;;;4977945;28;20041;-64
2023/12/07 04:15:49;;;;;;;75.45;22.92;;;-2.00;99.90;;;;;;4994249;28;20033;-64
2023/12/07 04:18:15;;;;;;;78.40;21.83;;;-2.10;99.90;;;;;;4999113;28;20060;-64
2023/12/07 04:20:41;;;;;;;78.38;22.92;;;-2.10;99.90;;;;;;4998080;28;20125;-64
2023/12/07 04:23:07;;;;;;;78.95;22.95;;;-2.10;99.90;;;;;;5003777;28;21093;-64
2023/12/07 04:25:32;;;;;;;77.95;22.75;;;-2.10;99.90;;;;;;4998196;28;20039;-64
2023/12/07 04:27:59;;;;;;;87.60;24.52;;;-2.10;99.90;;;;;;5001073;28;20026;-64
2023/12/07 04:30:24;;;;;;;73.28;22.50;;;-2.10;99.90;;;;;;4998289;28;20031;-64
2023/12/07 04:32:50;;;;;;;75.75;24.42;;;-2.00;99.90;;;;;;4983213;28;20026;-64
2023/12/07 04:35:15;;;;;;;81.85;23.88;;;-2.10;99.90;;;;;;4982551;28;20022;-64
2023/12/07 04:37:41;;;;;;;78.97;24.48;;;-2.00;99.90;;;;;;4999401;28;20033;-64
2023/12/07 04:40:07;;;;;;;93.63;24.30;;;-1.90;99.90;;;;;;4997572;28;20029;-64
2023/12/07 04:42:33;;;;;;;93.72;25.80;;;-1.70;99.90;;;;;;4998366;28;20585;-64
2023/12/07 04:44:58;;;;;;;83.72;22.50;;;-1.70;99.90;;;;;;4998148;28;20105;-64
2023/12/07 04:47:24;;;;;;;90.20;25.17;;;-1.80;99.90;;;;;;5001661;28;20552;-64
2023/12/07 04:49:49;;;;;;;90.45;25.58;;;-1.80;99.90;;;;;;4999670;28;20026;-64
2023/12/07 04:52:15;;;;;;;89.35;23.77;;;-1.90;99.90;;;;;;4998056;28;20026;-64
2023/12/07 04:54:41;;;;;;;75.25;21.95;;;-2.00;99.90;;;;;;4987099;28;20393;-64
2023/12/07 04:57:07;;;;;;;84.75;23.17;;;-2.10;99.90;;;;;;5001600;28;20413;-64
2023/12/07 04:59:32;;;;;;;78.40;24.05;;;-2.10;99.90;;;;;;4998121;28;20069;-64
2023/12/07 05:01:58;;;;;;;90.15;24.88;;;-2.10;99.90;;;;;;4996668;28;20500;-65
2023/12/07 05:04:24;;;;;;;85.53;24.33;;;-2.10;99.90;;;;;;4996895;28;20093;-65
2023/12/07 05:06:49;;;;;;;89.20;25.38;;;-2.10;99.90;;;;;;4997431;28;20026;-64
2023/12/07 05:09:15;;;;;;;88.70;24.15;;;-2.00;99.90;;;;;;4996045;28;20117;-64
2023/12/07 05:11:41;;;;;;;84.13;23.27;;;-2.00;99.90;;;;;;5000140;28;20334;-64
2023/12/07 05:14:07;;;;;;;98.75;26.58;;;-1.80;99.90;;;;;;4997810;28;20031;-65
2023/12/07 05:16:32;;;;;;;85.30;25.35;;;-1.50;99.90;;;;;;4998107;28;20033;-65
2023/12/07 05:18:58;;;;;;;78.45;23.15;;;-1.40;99.90;;;;;;4999836;28;20101;-65
2023/12/07 05:21:24;;;;;;;76.93;22.15;;;-1.40;99.90;;;;;;5002341;28;20481;-65
2023/12/07 05:23:50;;;;;;;81.25;23.30;;;-1.30;99.90;;;;;;4997385;28;20018;-65
2023/12/07 05:26:15;;;;;;;82.53;24.73;;;-1.10;99.90;;;;;;4982004;28;20033;-65
2023/12/07 05:28:41;;;;;;;75.50;20.77;;;-1.00;99.90;;;;;;4981492;28;20073;-65
2023/12/07 05:31:07;;;;;;;75.78;23.55;;;-0.70;99.90;;;;;;4991160;28;20033;-65
2023/12/07 05:33:33;;;;;;;77.18;23.00;;;-0.60;99.90;;;;;;4997200;28;20145;-65
2023/12/07 05:35:59;;;;;;;82.75;22.10;;;-0.50;99.90;;;;;;4997859;28;20113;-65
2023/12/07 05:38:25;;;;;;;78.75;23.00;;;-0.20;99.90;;;;;;4997685;28;20441;-65
2023/12/07 05:40:51;;;;;;;67.68;22.02;;;-0.20;99.90;;;;;;4995744;28;20038;-65
2023/12/07 05:43:16;;;;;;;69.43;21.02;;;-0.10;99.90;;;;;;4997694;28;20443;-65
2023/12/07 05:45:42;;;;;;;68.95;21.15;;;0.00;99.90;;;;;;5001147;28;20025;-65
2023/12/07 05:48:10;;;;;;;68.88;21.50;;;0.00;99.90;;;;;;4999881;28;20033;-65
2023/12/07 05:50:39;;;;;;;67.32;20.67;;;0.10;99.90;;;;;;4994535;28;20026;-64
2023/12/07 05:53:06;;;;;;;71.70;20.77;;;0.10;99.90;;;;;;4984224;28;20188;-64
2023/12/07 05:55:31;;;;;;;67.65;20.85;;;0.20;99.90;;;;;;4994734;28;20549;-64
2023/12/07 05:57:57;;;;;;;72.82;21.17;;;0.20;99.90;;;;;;5000830;28;20109;-63
2023/12/07 06:00:23;;;;;;;73.43;21.85;;;0.20;99.90;;;;;;4995085;28;20497;-63
2023/12/07 06:02:49;;;;;;;63.30;20.33;;;0.30;99.90;;;;;;4976534;28;20703;-63
2023/12/07 06:05:15;;;;;;;74.43;22.33;;;0.30;99.90;;;;;;4991994;28;20026;-64
2023/12/07 06:07:41;;;;;;;68.13;21.42;;;0.30;99.90;;;;;;4991459;28;20026;-64
2023/12/07 06:10:07;;;;;;;67.43;22.42;;;0.40;99.90;;;;;;4988489;28;20097;-63
2023/12/07 06:12:33;;;;;;;62.92;20.13;;;0.40;99.90;;;;;;4988574;28;20047;-63
2023/12/07 06:14:58;;;;;;;71.13;23.02;;;0.50;99.90;;;;;;4991997;28;20029;-62
2023/12/07 06:17:24;;;;;;;55.05;17.15;;;0.50;99.90;;;;;;4994681;28;20030;-65
2023/12/07 06:19:49;;;;;;;55.90;18.98;;;0.50;99.90;;;;;;4996665;28;20536;-64
2023/12/07 06:22:15;;;;;;;61.53;19.40;;;0.50;99.90;;;;;;4994246;28;20069;-63
2023/12/07 06:24:40;;;;;;;49.83;16.63;;;0.60;99.90;;;;;;4997252;28;20026;-65
2023/12/07 06:27:06;;;;;;;51.92;16.77;;;0.60;99.90;;;;;;4997789;28;20030;-65
2023/12/07 06:29:32;;;;;;;60.42;18.77;;;0.60;99.90;;;;;;4990117;28;20101;-64
2023/12/07 06:31:58;;;;;;;53.90;18.77;;;0.50;99.90;;;;;;4977953;28;20145;-64
2023/12/07 06:34:25;;;;;;;64.13;19.63;;;0.40;99.90;;;;;;4994725;28;20021;-64
2023/12/07 06:36:51;;;;;;;61.30;19.30;;;0.30;99.90;;;;;;4989361;28;20057;-64
2023/12/07 06:39:16;;;;;;;66.47;21.15;;;0.30;99.90;;;;;;4992563;28;20030;-64
2023/12/07 06:41:44;;;;;;;63.55;21.38;;;0.20;99.90;;;;;;4997002;28;20032;-64
2023/12/07 06:44:10;;;;;;;73.05;21.88;;;0.10;99.90;;;;;;4987293;28;20031;-63
2023/12/07 06:46:35;;;;;;;71.85;23.15;;;0.00;99.90;;;;;;4997935;28;20026;-64
2023/12/07 06:49:01;;;;;;;71.75;22.23;;;0.00;99.90;;;;;;4991688;28;20661;-64
2023/12/07 06:51:27;;;;;;;75.07;23.63;;;-0.10;99.90;;;;;;4982017;28;20432;-64
2023/12/07 06:53:53;;;;;;;74.75;22.60;;;-0.20;99.90;;;;;;4993933;28;20022;-64
2023/12/07 06:56:18;;;;;;;87.72;23.88;;;-0.30;99.90;;;;;;5001508;28;20095;-64
2023/12/07 06:58:46;;;;;;;75.13;22.60;;;-0.40;99.90;;;;;;4977559;28;20117;-65
2023/12/07 07:01:13;;;;;;;83.68;23.25;;;-0.60;99.90;;;;;;4981290;28;20026;-64
2023/12/07 07:03:38;;;;;;;86.00;25.25;;;-0.70;99.90;;;;;;4993733;28;20030;-64
2023/12/07 07:06:04;;;;;;;90.00;24.33;;;-0.10;99.90;;;;;;4994303;28;20028;-65
2023/12/07 07:08:30;;;;;;;89.22;25.52;;;-0.90;99.90;;;;;;4995479;28;20022;-66
2023/12/07 07:10:56;;;;;;;80.90;24.90;;;-1.00;99.90;;;;;;4995014;28;20093;-66
2023/12/07 07:13:22;;;;;;;101.15;27.38;;;-1.00;99.90;;;;;;4972782;28;20034;-66
2023/12/07 07:15:50;;;;;;;97.38;26.30;;;-1.00;99.90;;;;;;4992563;28;20053;-66
2023/12/07 07:18:16;;;;;;;81.10;24.40;;;-1.00;99.90;;;;;;4989535;28;20373;-66
2023/12/07 07:20:41;;;;;;;85.47;25.23;;;-1.10;99.90;;;;;;4982971;28;20045;-67
2023/12/07 07:23:10;;;;;;;91.07;28.63;;;-1.30;99.90;;;;;;5000290;28;20030;-66
2023/12/07 07:25:36;;;;;;;89.55;28.40;;;-1.30;99.90;;;;;;4993373;28;20030;-66
2023/12/07 07:28:02;;;;;;;81.97;26.92;;;-1.10;99.90;;;;;;4978050;28;20371;-66
2023/12/07 07:30:28;;;;;;;84.03;26.73;;;-1.00;99.90;;;;;;4991013;28;20252;-66
2023/12/07 07:32:53;;;;;;;108.18;33.03;;;-0.90;99.90;;;;;;4989223;28;20057;-66
2023/12/07 07:35:19;;;;;;;99.35;30.25;;;-0.70;99.90;;;;;;4979993;28;20034;-66
2023/12/07 07:37:44;;;;;;;99.28;26.02;;;-0.70;99.90;;;;;;4990620;28;20034;-66
2023/12/07 07:40:14;;;;;;;93.75;25.33;;;-0.60;99.90;;;;;;4993597;28;20034;-66
2023/12/07 07:42:40;;;;;;;82.73;26.13;;;-0.50;99.90;;;;;;4981278;28;20100;-66
2023/12/07 07:45:06;;;;;;;88.07;25.58;;;-0.40;99.90;;;;;;4997117;28;20292;-66
2023/12/07 07:47:32;;;;;;;88.22;24.77;;;-0.30;99.90;;;;;;5002120;28;20036;-66
2023/12/07 07:49:58;;;;;;;87.47;25.35;;;-0.30;99.90;;;;;;5001553;28;20022;-66
2023/12/07 07:52:24;;;;;;;83.72;23.98;;;-0.30;99.90;;;;;;5005745;28;20798;-66
2023/12/07 07:54:50;;;;;;;90.85;26.30;;;-0.20;99.90;;;;;;5006786;28;20129;-66
2023/12/07 07:57:15;;;;;;;84.03;25.23;;;-0.10;99.90;;;;;;5004882;28;20036;-66
2023/12/07 07:59:41;;;;;;;81.28;24.73;;;-0.10;99.90;;;;;;4990358;28;20079;-67
2023/12/07 08:02:07;;;;;;;82.00;25.50;;;0.00;99.90;;;;;;5004154;28;20072;-67
2023/12/07 08:04:32;;;;;;;73.97;22.77;;;0.00;99.90;;;;;;4991658;28;20038;-67
2023/12/07 08:06:58;;;;;;;87.47;26.50;;;0.10;99.90;;;;;;5005143;28;20599;-68
2023/12/07 08:09:23;;;;;;;79.13;25.05;;;0.10;99.90;;;;;;5000210;28;20067;-66
2023/12/07 08:11:49;;;;;;;83.70;23.75;;;0.10;99.90;;;;;;4983412;28;20443;-67
2023/12/07 08:14:15;;;;;;;80.50;24.98;;;0.20;99.90;;;;;;5003240;28;20045;-67
2023/12/07 08:16:47;;;;;;;72.45;21.42;;;0.30;99.90;;;;;;5006691;28;20034;-66
2023/12/07 08:19:13;;;;;;;61.38;19.30;;;0.30;99.90;;;;;;4998945;28;20030;-67
2023/12/07 08:21:39;;;;;;;71.30;21.35;;;0.40;99.90;;;;;;5005116;28;20042;-67
2023/12/07 08:24:05;;;;;;;72.88;22.13;;;0.40;99.90;;;;;;5001051;28;20080;-66
2023/12/07 08:26:31;;;;;;;64.40;21.77;;;0.50;99.90;;;;;;5002135;28;20025;-67
2023/12/07 08:28:57;;;;;;;57.63;20.23;;;0.60;99.90;;;;;;5005515;28;20034;-67
2023/12/07 08:31:23;;;;;;;47.60;17.38;;;0.60;99.90;;;;;;4985989;28;20022;-67
2023/12/07 08:33:55;;;;;;;56.75;18.08;;;0.70;99.90;;;;;;5006717;28;20025;-66
2023/12/07 08:36:20;;;;;;;53.72;21.20;;;0.80;99.90;;;;;;5004843;28;20521;-67
2023/12/07 08:38:46;;;;;;;58.03;19.30;;;0.80;99.90;;;;;;4984855;28;20026;-67
2023/12/07 08:41:11;;;;;;;52.50;18.33;;;0.90;99.90;;;;;;5004121;28;20068;-67
2023/12/07 08:43:37;;;;;;;45.45;16.25;;;0.90;99.90;;;;;;4987216;28;20026;-67
2023/12/07 08:46:04;;;;;;;59.13;18.60;;;1.00;99.90;;;;;;5002390;28;20030;-66
2023/12/07 08:48:30;;;;;;;44.40;17.17;;;1.20;99.90;;;;;;5001339;28;20363;-66
2023/12/07 08:50:55;;;;;;;42.30;15.98;;;1.30;99.90;;;;;;4999704;28;20027;-67
2023/12/07 08:53:23;;;;;;;48.22;16.45;;;1.50;99.90;;;;;;4984047;28;20030;-67
2023/12/07 08:55:49;;;;;;;29.23;11.55;;;1.70;99.90;;;;;;4985758;28;20030;-67
2023/12/07 08:58:14;;;;;;;33.90;13.95;;;1.90;99.90;;;;;;4989656;28;20026;-66
2023/12/07 09:00:42;;;;;;;38.53;15.20;;;2.10;99.90;;;;;;5000736;28;20124;-66
2023/12/07 09:03:08;;;;;;;29.00;12.40;;;2.40;99.90;;;;;;5004306;28;20076;-66
2023/12/07 09:05:34;;;;;;;32.28;13.48;;;2.70;99.90;;;;;;5002168;28;20034;-66
2023/12/07 09:08:00;;;;;;;32.80;13.57;;;2.90;99.90;;;;;;4985150;28;20030;-66
2023/12/07 09:10:25;;;;;;;35.90;14.52;;;3.00;99.90;;;;;;4986827;28;20022;-66
2023/12/07 09:12:51;;;;;;;24.90;10.48;;;3.30;99.90;;;;;;5003502;28;20196;-66
2023/12/07 09:15:16;;;;;;;32.28;12.63;;;3.50;99.90;;;;;;5007559;28;20457;-66
2023/12/07 09:17:42;;;;;;;27.10;12.65;;;3.70;99.90;;;;;;5004598;28;20038;-66
2023/12/07 09:20:11;;;;;;;31.70;12.82;;;3.90;99.90;;;;;;5000883;28;20041;-66
2023/12/07 09:22:39;;;;;;;24.50;10.65;;;4.20;99.90;;;;;;5006174;28;20026;-66
2023/12/07 09:25:05;;;;;;;32.85;12.38;;;4.40;99.90;;;;;;5000485;28;20030;-66
2023/12/07 09:27:33;;;;;;;29.45;12.90;;;4.50;99.90;;;;;;5004218;28;20092;-66
2023/12/07 09:29:58;;;;;;;27.25;11.10;;;4.60;99.90;;;;;;4983028;28;20088;-65
2023/12/07 09:32:24;;;;;;;28.17;12.40;;;4.80;99.90;;;;;;5002265;28;20042;-65
2023/12/07 09:34:51;;;;;;;25.20;11.57;;;4.90;99.90;;;;;;5004319;28;20026;-65
2023/12/07 09:37:16;;;;;;;27.80;11.77;;;5.00;99.90;;;;;;4994074;28;20413;-65
2023/12/07 09:39:42;;;;;;;22.98;10.00;;;5.10;99.90;;;;;;5000820;28;20065;-64
2023/12/07 09:42:07;;;;;;;25.70;10.95;;;5.30;99.90;;;;;;4997074;28;20025;-65
2023/12/07 09:44:33;;;;;;;29.17;11.80;;;5.50;99.90;;;;;;4996477;28;20132;-65
2023/12/07 09:46:59;;;;;;;23.63;10.85;;;5.70;99.90;;;;;;4981821;28;20046;-65
2023/12/07 09:49:25;;;;;;;19.77;9.27;;;5.70;99.90;;;;;;4982974;28;20426;-65
2023/12/07 09:51:51;;;;;;;26.55;11.25;;;5.70;99.90;;;;;;5003060;28;20029;-65
2023/12/07 09:54:18;;;;;;;25.23;11.35;;;5.50;99.90;;;;;;4988796;28;20121;-63
2023/12/07 09:56:44;;;;;;;24.13;10.85;;;5.80;99.90;;;;;;5009165;28;20010;-65
2023/12/07 09:59:09;;;;;;;20.90;8.57;;;6.10;99.90;;;;;;5001926;28;20463;-65
2023/12/07 10:01:35;;;;;;;16.15;7.13;;;6.20;99.90;;;;;;5003504;28;20102;-65
2023/12/07 10:04:22;;;;;;;23.58;9.68;;;6.00;99.90;;;;;;5003705;28;20544;-65
2023/12/07 10:06:49;;;;;;;26.70;10.43;;;5.80;99.90;;;;;;5002628;28;20022;-65
2023/12/07 10:09:15;;;;;;;17.55;7.80;;;5.80;99.90;;;;;;5001545;28;20067;-65
2023/12/07 10:11:41;;;;;;;21.67;9.93;;;5.90;99.90;;;;;;5004709;28;20027;-65
2023/12/07 10:14:07;;;;;;;23.90;10.95;;;5.90;99.90;;;;;;4982478;28;20085;-65
2023/12/07 10:16:35;;;;;;;21.73;10.45;;;6.00;99.90;;;;;;4991536;28;20030;-65
2023/12/07 10:19:19;;;;;;;24.70;10.48;;;6.10;99.90;;;;;;4999899;28;20027;-64
2023/12/07 10:21:44;;;;;;;17.70;7.00;;;6.60;99.90;;;;;;5008127;28;20061;-64
2023/12/07 10:24:11;;;;;;;23.95;9.20;;;7.00;99.90;;;;;;5003576;28;20125;-65
2023/12/07 10:26:38;;;;;;;20.58;9.45;;;6.90;99.90;;;;;;4984923;28;20461;-65
2023/12/07 10:29:07;;;;;;;16.42;7.50;;;6.80;99.90;;;;;;4995577;28;20049;-65
2023/12/07 10:31:33;;;;;;;18.73;8.95;;;6.90;99.90;;;;;;5004495;28;20477;-65
2023/12/07 10:34:00;;;;;;;20.98;9.77;;;6.80;99.90;;;;;;4988453;28;20028;-65
2023/12/07 10:36:26;;;;;;;19.55;9.25;;;6.80;99.90;;;;;;5003167;28;20026;-65
2023/12/07 10:38:52;;;;;;;18.13;8.35;;;6.80;99.90;;;;;;4997555;28;20034;-65
2023/12/07 10:41:20;;;;;;;22.33;8.20;;;7.10;99.90;;;;;;4996859;28;20087;-65
2023/12/07 10:43:51;;;;;;;18.85;7.90;;;7.20;99.90;;;;;;4980803;28;20045;-65
2023/12/07 10:46:20;;;;;;;18.30;8.63;;;7.20;99.90;;;;;;4998909;28;20034;-65
2023/12/07 10:48:47;;;;;;;17.23;7.27;;;7.20;99.90;;;;;;4998776;28;20030;-65
2023/12/07 10:51:23;;;;;;;20.23;7.63;;;7.10;99.90;;;;;;4979009;28;20030;-65
2023/12/07 10:53:50;;;;;;;21.23;8.15;;;7.20;99.90;;;;;;4997299;28;20046;-65
2023/12/07 10:56:26;;;;;;;17.17;6.65;;;7.30;99.90;;;;;;4997017;28;20041;-64
2023/12/07 10:58:52;;;;;;;16.85;7.18;;;7.70;99.90;;;;;;4996662;28;20030;-64
2023/12/07 11:01:19;;;;;;;17.42;6.95;;;7.90;99.90;;;;;;4996093;28;20060;-65
2023/12/07 11:03:49;;;;;;;17.30;6.55;;;8.20;99.90;;;;;;4998712;28;20033;-64
2023/12/07 11:06:15;;;;;;;19.55;7.47;;;8.30;99.90;;;;;;4995956;28;20462;-62
2023/12/07 11:08:47;;;;;;;17.45;8.07;;;8.50;99.90;;;;;;4999453;28;20492;-63
2023/12/07 11:11:34;;;;;;;17.38;8.13;;;8.70;99.90;;;;;;4994357;28;20037;-62
2023/12/07 11:14:03;;;;;;;14.07;5.95;;;9.20;99.90;;;;;;4997222;28;20046;-64
2023/12/07 11:16:31;;;;;;;18.48;8.13;;;8.90;99.90;;;;;;4978916;28;20050;-64
2023/12/07 11:18:57;;;;;;;15.18;6.45;;;8.40;99.90;;;;;;4980709;28;20021;-64
2023/12/07 11:21:23;;;;;;;18.63;7.13;;;8.20;99.90;;;;;;5000687;28;20342;-64
2023/12/07 11:23:49;;;;;;;18.00;8.20;;;8.10;99.90;;;;;;4998523;28;20026;-64
2023/12/07 11:26:18;;;;;;;15.65;7.88;;;8.30;99.90;;;;;;4996740;28;20038;-64
2023/12/07 11:28:44;;;;;;;18.98;8.05;;;8.60;99.90;;;;;;4996224;28;20477;-64
2023/12/07 11:31:09;;;;;;;20.20;8.57;;;8.60;99.90;;;;;;4996632;28;20088;-64
2023/12/07 11:33:39;;;;;;;16.70;7.60;;;8.90;99.90;;;;;;5004504;28;20026;-64
2023/12/07 11:36:07;;;;;;;18.08;7.40;;;9.00;99.90;;;;;;4999792;28;20041;-64
2023/12/07 11:38:32;;;;;;;16.83;6.55;;;9.00;99.90;;;;;;5005396;28;20504;-64
2023/12/07 11:40:59;;;;;;;18.65;7.95;;;8.90;99.90;;;;;;4992695;28;20026;-64
2023/12/07 11:43:35;;;;;;;18.15;7.90;;;8.60;99.90;;;;;;5001951;28;20127;-64
2023/12/07 11:46:01;;;;;;;18.20;8.20;;;8.70;99.90;;;;;;5003885;28;20073;-64
2023/12/07 11:48:27;;;;;;;18.23;7.78;;;9.20;99.90;;;;;;4990155;28;20030;-63
2023/12/07 11:51:04;;;;;;;18.48;8.18;;;9.70;99.80;;;;;;5007511;28;20542;-63
2023/12/07 11:53:35;;;;;;;17.95;7.20;;;9.90;98.90;;;;;;5007950;28;20030;-64
2023/12/07 11:56:05;;;;;;;23.42;8.48;;;10.10;99.30;;;;;;4988844;28;20056;-63
2023/12/07 11:58:33;;;;;;;15.93;6.63;;;10.20;98.40;;;;;;4987295;28;20034;-63
2023/12/07 12:00:59;;;;;;;16.83;7.00;;;10.30;97.30;;;;;;5001967;28;20065;-62
2023/12/07 12:03:26;;;;;;;15.02;6.57;;;10.30;97.80;;;;;;5007650;28;20037;-64
2023/12/07 12:05:52;;;;;;;16.30;7.43;;;10.30;96.80;;;;;;4985128;28;20457;-65
2023/12/07 12:08:18;;;;;;;16.45;7.68;;;10.60;96.90;;;;;;5007140;28;20021;-65
2023/12/07 12:10:45;;;;;;;15.98;7.25;;;10.60;97.70;;;;;;5003850;28;20037;-64
2023/12/07 12:13:11;;;;;;;17.73;6.88;;;11.10;95.50;;;;;;5001323;28;20068;-65
2023/12/07 12:15:40;;;;;;;15.07;6.75;;;11.60;93.50;;;;;;4986241;28;20041;-63
2023/12/07 12:18:07;;;;;;;13.68;6.43;;;11.70;91.80;;;;;;5001907;28;20501;-63
2023/12/07 12:20:33;;;;;;;14.23;5.82;;;11.90;95.50;;;;;;5006028;28;20497;-63
2023/12/07 12:22:59;;;;;;;14.13;6.53;;;12.10;91.70;;;;;;5001254;28;20055;-63
2023/12/07 12:25:28;;;;;;;12.55;6.10;;;12.00;91.80;;;;;;4999002;28;20520;-63
2023/12/07 12:27:56;;;;;;;14.38;7.00;;;12.00;93.60;;;;;;5002096;28;20072;-63
2023/12/07 12:30:22;;;;;;;13.20;6.30;;;12.10;90.90;;;;;;4986727;28;20057;-63
2023/12/07 12:32:49;;;;;;;14.02;6.55;;;12.10;90.40;;;;;;4986444;28;20133;-62